Time;durP1;ratioP1;P1;durP2;ratioP2;P2;SDS_P1;SDS_P2;PMS_P1;PMS_P2;Temp;Humidity;BMP_temperature;BMP_pressure;BME280_temperature;BME280_humidity;BME280_pressure;Samples;Min_cycle;Max_cycle;Signal;HPM_P1;HPM_P2
2023/01/21 00:00:35;;;;;;;84.47;29.50;;;;;;;-1.68;100.00;100645.31;5094493;28;20078;-73
2023/01/21 00:03:00;;;;;;;88.70;31.77;;;;;;;-1.71;100.00;100640.53;5094072;28;20060;-73
2023/01/21 00:05:26;;;;;;;79.32;30.10;;;;;;;-1.33;100.00;100697.72;5094318;28;20024;-74
2023/01/21 00:07:51;;;;;;;82.90;29.67;;;;;;;-1.35;100.00;100670.09;5076085;28;20028;-74
2023/01/21 00:10:17;;;;;;;73.07;29.10;;;;;;;-1.50;100.00;100657.31;5076315;28;20039;-74
2023/01/21 00:12:43;;;;;;;71.22;26.73;;;;;;;-1.37;100.00;100699.75;5094403;28;20031;-73
2023/01/21 00:15:08;;;;;;;72.45;26.95;;;;;;;-1.85;100.00;100648.94;5076124;28;20476;-73
2023/01/21 00:17:35;;;;;;;79.68;27.95;;;;;;;-1.84;100.00;100651.31;5094124;28;20027;-73
2023/01/21 00:20:04;;;;;;;78.03;27.05;;;;;;;-1.39;100.00;100702.94;5093205;28;20020;-75
2023/01/21 00:22:30;;;;;;;79.15;27.17;;;;;;;-1.68;100.00;100679.75;5075327;28;20028;-74
2023/01/21 00:24:55;;;;;;;66.57;24.80;;;;;;;-1.48;100.00;100710.16;5093594;28;20047;-74
2023/01/21 00:27:21;;;;;;;69.55;24.95;;;;;;;-1.83;100.00;100655.72;5094025;28;20027;-73
2023/01/21 00:29:46;;;;;;;60.38;22.83;;;;;;;-1.36;100.00;100735.75;5076052;28;20161;-74
2023/01/21 00:32:11;;;;;;;74.75;24.95;;;;;;;-1.67;100.00;100658.94;5092493;28;20119;-75
2023/01/21 00:34:37;;;;;;;69.07;27.45;;;;;;;-1.66;100.00;100671.75;5093834;28;20107;-74
2023/01/21 00:37:02;;;;;;;65.57;25.02;;;;;;;-1.67;100.00;100672.94;5093844;28;20058;-74
2023/01/21 00:39:28;;;;;;;65.15;27.83;;;;;;;-1.32;100.00;100745.00;5093922;28;20035;-73
2023/01/21 00:41:53;;;;;;;67.97;26.75;;;;;;;-1.26;100.00;100726.53;5094290;28;20078;-74
2023/01/21 00:44:19;;;;;;;64.25;25.95;;;;;;;-1.22;100.00;100723.75;5093943;28;20059;-75
2023/01/21 00:46:44;;;;;;;71.57;28.92;;;;;;;-1.31;100.00;100696.13;5075901;28;20055;-74
2023/01/21 00:49:10;;;;;;;68.50;25.90;;;;;;;-1.39;100.00;100688.94;5058797;28;20461;-73
2023/01/21 00:51:35;;;;;;;63.08;26.10;;;;;;;-1.31;100.00;100696.13;5092229;28;20024;-73
2023/01/21 00:54:00;;;;;;;70.05;25.75;;;;;;;-1.03;100.00;100734.53;5075382;28;20020;-74
2023/01/21 00:56:26;;;;;;;73.18;25.75;;;;;;;-1.40;100.00;100673.31;5093829;28;20020;-73
2023/01/21 00:58:51;;;;;;;70.88;25.17;;;;;;;-1.41;100.00;100685.75;5075465;28;20046;-73
2023/01/21 01:01:19;;;;;;;62.80;25.25;;;;;;;-1.14;100.00;100719.72;5093447;28;20024;-75
2023/01/21 01:03:46;;;;;;;63.55;23.52;;;;;;;-1.11;100.00;100740.56;5093789;28;20016;-73
2023/01/21 01:06:14;;;;;;;62.33;25.08;;;;;;;-1.07;100.00;100744.16;5093322;28;20103;-74
2023/01/21 01:08:41;;;;;;;77.15;23.25;;;;;;;-1.04;100.00;100732.13;5092106;28;20025;-75
2023/01/21 01:11:06;;;;;;;69.63;24.88;;;;;;;-1.18;100.00;100736.56;5093633;28;20108;-74
2023/01/21 01:13:33;;;;;;;85.68;31.58;;;;;;;-1.48;100.00;100733.38;5075119;28;20054;-75
2023/01/21 01:16:00;;;;;;;75.45;25.73;;;;;;;-1.79;100.00;100684.53;5093574;28;20032;-74
2023/01/21 01:18:26;;;;;;;72.05;25.00;;;;;;;-1.57;100.00;100718.97;5059144;28;20058;-74
2023/01/21 01:20:52;;;;;;;71.72;26.63;;;;;;;-1.67;100.00;100719.75;5093277;28;20377;-73
2023/01/21 01:23:17;;;;;;;73.07;25.95;;;;;;;-2.00;100.00;100695.72;5093590;28;20480;-74
2023/01/21 01:25:43;;;;;;;67.90;24.13;;;;;;;-2.09;100.00;100696.09;5093508;28;20034;-74
2023/01/21 01:28:09;;;;;;;76.03;25.88;;;;;;;-2.20;100.00;100667.28;5093208;28;20480;-75
2023/01/21 01:30:34;;;;;;;69.88;23.98;;;;;;;-2.11;100.00;100662.13;5074996;28;20101;-74
2023/01/21 01:33:00;;;;;;;84.82;24.65;;;;;;;-1.92;100.00;100696.53;5092900;28;20123;-74
2023/01/21 01:35:25;;;;;;;70.88;24.23;;;;;;;-2.03;100.00;100682.50;5095474;28;20028;-74
2023/01/21 01:37:51;;;;;;;84.88;26.17;;;;;;;-2.03;100.00;100707.72;5097095;28;20020;-73
2023/01/21 01:40:16;;;;;;;64.78;22.67;;;;;;;-1.69;100.00;100748.16;5097580;28;20024;-74
2023/01/21 01:42:41;;;;;;;77.40;24.77;;;;;;;-1.77;100.00;100717.75;5097259;28;20039;-75
2023/01/21 01:45:13;;;;;;;87.35;31.20;;;;;;;-1.65;100.00;100740.56;5096949;28;20024;-74
2023/01/21 01:47:57;;;;;;;85.60;30.23;;;;;;;-1.69;100.00;100730.56;5078829;28;20024;-77
2023/01/21 01:50:25;;;;;;;90.70;27.42;;;;;;;-1.52;100.00;100754.19;5079231;28;20032;-73
2023/01/21 01:52:51;;;;;;;87.45;29.75;;;;;;;-1.60;100.00;100705.75;5097249;28;20024;-74
2023/01/21 01:55:16;;;;;;;87.72;30.88;;;;;;;-1.77;100.00;100684.94;5078816;28;20027;-75
2023/01/21 01:57:46;;;;;;;90.53;31.17;;;;;;;-1.71;100.00;100702.16;5096747;28;20027;-73
2023/01/21 02:00:12;;;;;;;90.55;30.65;;;;;;;-1.35;100.00;100748.56;5078778;28;20411;-75
2023/01/21 02:02:39;;;;;;;81.70;30.15;;;;;;;-1.45;100.00;100738.16;5096656;28;20036;-73
2023/01/21 02:05:07;;;;;;;81.50;29.35;;;;;;;-1.51;100.00;100737.00;5078476;28;20020;-76
2023/01/21 02:07:38;;;;;;;85.63;29.20;;;;;;;-1.48;100.00;100738.97;5078447;28;20028;-74
2023/01/21 02:10:06;;;;;;;75.93;27.03;;;;;;;-1.41;100.00;100729.78;5096863;28;20016;-74
2023/01/21 02:12:32;;;;;;;72.88;27.30;;;;;;;-1.63;100.00;100684.94;5078331;28;20055;-75
2023/01/21 02:14:58;;;;;;;83.82;26.58;;;;;;;-1.32;100.00;100733.78;5078377;28;20034;-75
2023/01/21 02:17:33;;;;;;;84.05;25.42;;;;;;;-1.32;100.00;100727.38;5078019;28;20020;-74
2023/01/21 02:20:36;;;;;;;72.20;24.67;;;;;;;-1.29;100.00;100724.56;5078131;28;20367;-73
2023/01/21 02:23:04;;;;;;;83.88;28.00;;;;;;;-1.29;100.00;100718.94;5096271;28;20016;-74
2023/01/21 02:25:58;;;;;;;73.22;26.52;;;;;;;-1.50;100.00;100704.94;5096361;28;20030;-73
2023/01/21 02:28:30;;;;;;;79.40;25.55;;;;;;;-1.39;100.00;100716.16;5077752;28;20055;-74
2023/01/21 02:31:03;;;;;;;76.25;26.52;;;;;;;-1.38;100.00;100726.97;5096269;28;20024;-73
2023/01/21 02:33:37;;;;;;;80.78;25.63;;;;;;;-1.41;100.00;100722.19;5077843;28;20055;-72
2023/01/21 02:36:20;;;;;;;73.22;28.27;;;;;;;-1.46;100.00;100722.56;5096244;28;20111;-73
2023/01/21 02:38:49;;;;;;;80.78;25.33;;;;;;;-1.47;100.00;100729.38;5095939;28;20024;-73
2023/01/21 02:41:48;;;;;;;65.95;22.88;;;;;;;-1.52;100.00;100723.38;5096012;28;20047;-74
2023/01/21 02:44:21;;;;;;;58.40;22.67;;;;;;;-1.70;100.00;100707.34;5095879;28;20031;-74
2023/01/21 02:47:00;;;;;;;65.97;22.75;;;;;;;-1.64;100.00;100707.75;5094992;28;20033;-74
2023/01/21 02:49:53;;;;;;;65.20;22.63;;;;;;;-1.70;100.00;100690.53;5077930;28;20032;-74
2023/01/21 02:52:20;;;;;;;59.22;20.50;;;;;;;-1.51;100.00;100717.38;5094456;28;20028;-73
2023/01/21 02:54:54;;;;;;;62.65;21.88;;;;;;;-1.64;100.00;100697.34;5096256;28;20051;-73
2023/01/21 02:57:32;;;;;;;57.60;20.63;;;;;;;-1.52;100.00;100726.97;5077752;28;20061;-73
2023/01/21 02:59:58;;;;;;;48.97;17.98;;;;;;;-1.66;100.00;100716.56;5077307;28;20028;-73
2023/01/21 03:02:47;;;;;;;59.92;21.35;;;;;;;-1.53;100.00;100718.97;5060658;28;20120;-72
2023/01/21 03:05:24;;;;;;;57.42;20.27;;;;;;;-1.54;100.00;100725.75;5094320;28;20031;-74
2023/01/21 03:08:17;;;;;;;60.10;22.75;;;;;;;-1.54;100.00;100720.97;5095524;28;20089;-73
2023/01/21 03:10:49;;;;;;;58.58;21.60;;;;;;;-1.87;100.00;100673.75;5077017;28;20040;-74
2023/01/21 03:16:55;;;;;;;58.95;21.35;;;;;;;-1.84;100.00;100678.53;5063969;28;20081;-73
2023/01/21 03:19:23;;;;;;;51.03;20.05;;;;;;;-1.51;100.00;100713.78;5078291;28;20089;-73
2023/01/21 03:21:49;;;;;;;52.83;18.98;;;;;;;-1.88;100.00;100677.72;5060434;28;20030;-74
2023/01/21 03:24:15;;;;;;;54.28;18.85;;;;;;;-1.67;100.00;100708.56;5094001;28;20028;-73
2023/01/21 03:26:47;;;;;;;50.92;18.05;;;;;;;-1.71;100.00;100699.34;5093897;28;20024;-74
2023/01/21 03:29:15;;;;;;;47.15;17.63;;;;;;;-1.97;100.00;100671.72;5076915;28;20465;-73
2023/01/21 03:31:43;;;;;;;44.05;16.40;;;;;;;-2.07;100.00;100639.72;5094566;28;20036;-73
2023/01/21 03:34:10;;;;;;;43.95;17.30;;;;;;;-1.90;100.00;100669.72;5093754;28;20055;-73
2023/01/21 03:36:52;;;;;;;41.75;16.05;;;;;;;-1.62;100.00;100713.75;5060058;28;20526;-74
2023/01/21 03:39:37;;;;;;;46.42;15.40;;;;;;;-1.77;100.00;100681.34;5093813;28;20020;-74
2023/01/21 03:42:02;;;;;;;45.80;16.67;;;;;;;-1.55;100.00;100705.34;5094933;28;20049;-73
2023/01/21 03:44:28;;;;;;;45.42;16.38;;;;;;;-1.54;100.00;100714.56;5093536;28;20031;-73
2023/01/21 03:47:08;;;;;;;47.65;17.77;;;;;;;-1.61;100.00;100712.56;5094970;28;20099;-74
2023/01/21 03:49:37;;;;;;;41.45;16.85;;;;;;;-1.79;100.00;100666.94;5094598;28;20500;-74
2023/01/21 03:52:04;;;;;;;45.92;17.52;;;;;;;-1.96;100.00;100636.94;5076574;28;20456;-73
2023/01/21 03:54:29;;;;;;;46.20;18.90;;;;;;;-1.63;100.00;100690.56;5076418;28;20024;-74
2023/01/21 03:56:55;;;;;;;45.13;17.48;;;;;;;-1.67;100.00;100695.34;5076264;28;20031;-73
2023/01/21 03:59:20;;;;;;;52.90;16.17;;;;;;;-1.54;100.00;100706.94;5076023;28;20123;-74
2023/01/21 04:01:46;;;;;;;42.63;17.80;;;;;;;-1.87;100.00;100649.34;5093215;28;20473;-74
2023/01/21 04:04:11;;;;;;;49.95;18.15;;;;;;;-1.67;100.00;100680.53;5076188;28;20480;-73
2023/01/21 04:06:37;;;;;;;44.05;17.73;;;;;;;-1.45;100.00;100704.53;5076214;28;20027;-73
2023/01/21 04:09:03;;;;;;;46.40;17.27;;;;;;;-1.49;100.00;100686.94;5076266;28;20028;-73
2023/01/21 04:11:29;;;;;;;45.33;18.05;;;;;;;-1.60;100.00;100670.13;5059585;28;20020;-74
2023/01/21 04:13:55;;;;;;;48.47;17.67;;;;;;;-1.75;100.00;100626.50;5076049;28;20071;-72
2023/01/21 04:16:21;;;;;;;56.65;21.02;;;;;;;-1.43;100.00;100693.75;5075808;28;20051;-73
2023/01/21 04:18:47;;;;;;;49.08;18.95;;;;;;;-1.40;100.00;100690.13;5076321;28;20024;-74
2023/01/21 04:21:12;;;;;;;45.25;17.40;;;;;;;-1.84;100.00;100634.53;5075734;28;20031;-74
2023/01/21 04:23:38;;;;;;;51.28;18.73;;;;;;;-1.84;100.00;100636.53;5075873;28;20028;-74
2023/01/21 04:26:03;;;;;;;47.80;18.00;;;;;;;-1.90;100.00;100647.31;5092930;28;20020;-73
2023/01/21 04:28:29;;;;;;;43.65;17.48;;;;;;;-1.69;100.00;100669.72;5094199;28;20042;-75
2023/01/21 04:30:54;;;;;;;53.17;18.25;;;;;;;-1.83;100.00;100638.13;5075723;28;20059;-73
2023/01/21 04:33:20;;;;;;;55.00;17.38;;;;;;;-1.81;100.00;100650.53;5072336;28;20410;-74
2023/01/21 04:35:46;;;;;;;43.92;17.65;;;;;;;-1.73;100.00;100662.53;5055561;28;20028;-73
2023/01/21 04:38:12;;;;;;;46.10;18.05;;;;;;;-1.65;100.00;100680.94;5055463;28;20082;-74
2023/01/21 04:40:38;;;;;;;42.35;16.65;;;;;;;-1.81;100.00;100666.53;5072162;28;20036;-73
2023/01/21 04:43:03;;;;;;;37.28;15.60;;;;;;;-1.99;100.00;100646.91;5055309;28;20030;-74
2023/01/21 04:45:29;;;;;;;44.97;16.05;;;;;;;-1.92;100.00;100638.53;5072164;28;20032;-73
2023/01/21 04:47:54;;;;;;;45.60;17.77;;;;;;;-1.95;100.00;100610.53;5055358;28;20032;-74
2023/01/21 04:50:19;;;;;;;38.92;15.88;;;;;;;-1.79;100.00;100638.91;5072184;28;20028;-74
2023/01/21 04:52:45;;;;;;;51.92;18.67;;;;;;;-1.80;100.00;100642.94;5072401;28;20024;-74
2023/01/21 04:55:10;;;;;;;37.78;13.65;;;;;;;-1.70;100.00;100648.53;5055380;28;20032;-74
2023/01/21 04:57:36;;;;;;;43.10;16.15;;;;;;;-1.51;100.00;100675.34;5073343;28;20091;-73
2023/01/21 05:00:04;;;;;;;44.30;16.08;;;;;;;-1.48;100.00;100676.53;5072204;28;20024;-74
2023/01/21 05:02:30;;;;;;;47.47;16.58;;;;;;;-1.68;100.00;100643.31;5072105;28;20569;-73
2023/01/21 05:04:55;;;;;;;40.85;16.80;;;;;;;-1.75;100.00;100636.91;5072045;28;20028;-74
2023/01/21 05:07:21;;;;;;;55.15;22.83;;;;;;;-1.43;100.00;100679.72;5073263;28;20115;-74
2023/01/21 05:09:46;;;;;;;53.75;21.00;;;;;;;-1.52;100.00;100664.53;5073067;28;20029;-73
2023/01/21 05:12:12;;;;;;;54.55;19.55;;;;;;;-1.51;100.00;100664.13;5059442;28;20028;-74
2023/01/21 05:14:37;;;;;;;50.67;20.13;;;;;;;-1.63;100.00;100650.53;5077461;28;20039;-74
2023/01/21 05:17:03;;;;;;;50.65;22.05;;;;;;;-1.68;100.00;100648.13;5077450;28;20030;-73
2023/01/21 05:19:28;;;;;;;49.50;20.20;;;;;;;-1.48;100.00;100666.13;5077319;28;20458;-73
2023/01/21 05:21:53;;;;;;;48.95;20.85;;;;;;;-1.77;100.00;100640.13;5076384;28;20024;-74
2023/01/21 05:24:19;;;;;;;48.13;19.13;;;;;;;-1.79;100.00;100628.53;5077139;28;20112;-74
2023/01/21 05:26:44;;;;;;;57.40;22.67;;;;;;;-1.46;100.00;100663.72;5075807;28;20036;-72
2023/01/21 05:29:10;;;;;;;53.60;20.92;;;;;;;-1.75;100.00;100636.91;5077124;28;20028;-74
2023/01/21 05:31:36;;;;;;;51.28;21.05;;;;;;;-1.38;100.00;100672.91;5079269;28;20099;-73
2023/01/21 05:34:01;;;;;;;52.72;21.52;;;;;;;-1.64;100.00;100643.31;5062286;28;20495;-73
2023/01/21 05:36:27;;;;;;;51.10;21.85;;;;;;;-1.58;100.00;100631.31;5078817;28;20051;-73
2023/01/21 05:38:52;;;;;;;54.20;21.45;;;;;;;-1.47;100.00;100631.31;5096952;28;20032;-74
2023/01/21 05:41:18;;;;;;;61.72;21.70;;;;;;;-1.26;100.00;100655.69;5079028;28;20114;-74
2023/01/21 05:43:43;;;;;;;58.88;23.58;;;;;;;-1.46;100.00;100644.13;5097168;28;20032;-73
2023/01/21 05:46:09;;;;;;;49.53;20.75;;;;;;;-1.47;100.00;100628.50;5078859;28;20172;-72
2023/01/21 05:48:34;;;;;;;53.95;21.90;;;;;;;-1.59;100.00;100606.50;5078548;28;20032;-74
2023/01/21 05:51:00;;;;;;;51.78;20.10;;;;;;;-1.66;100.00;100596.13;5061959;28;20040;-74
2023/01/21 05:53:26;;;;;;;54.47;22.92;;;;;;;-1.30;100.00;100652.06;5078699;28;20035;-74
2023/01/21 05:55:53;;;;;;;56.00;22.10;;;;;;;-1.58;100.00;100594.91;5078903;28;20427;-75
2023/01/21 05:58:19;;;;;;;52.22;21.95;;;;;;;-1.37;100.00;100641.69;5061778;28;20023;-74
2023/01/21 06:00:46;;;;;;;49.25;19.33;;;;;;;-1.80;100.00;100562.50;5096816;28;20054;-73
2023/01/21 06:03:11;;;;;;;49.85;19.13;;;;;;;-1.72;100.00;100572.50;5061830;28;20027;-73
2023/01/21 06:05:37;;;;;;;55.97;20.67;;;;;;;-1.66;100.00;100586.91;5061749;28;20028;-74
2023/01/21 06:08:02;;;;;;;55.65;22.85;;;;;;;-1.62;100.00;100596.09;5078220;28;20047;-74
2023/01/21 06:10:28;;;;;;;59.25;21.83;;;;;;;-1.38;100.00;100637.28;5061734;28;20040;-75
2023/01/21 06:12:53;;;;;;;53.33;22.20;;;;;;;-1.32;100.00;100640.50;5096883;28;20032;-75
2023/01/21 06:15:19;;;;;;;49.30;22.02;;;;;;;-1.46;100.00;100598.47;5095360;28;20115;-74
2023/01/21 06:17:44;;;;;;;56.97;23.10;;;;;;;-1.44;100.00;100599.66;5061594;28;20027;-74
2023/01/21 06:20:10;;;;;;;56.80;23.27;;;;;;;-1.28;100.00;100618.84;5096109;28;20426;-74
2023/01/21 06:22:36;;;;;;;56.28;21.05;;;;;;;-1.51;100.00;100580.09;5096385;28;20028;-73
2023/01/21 06:25:01;;;;;;;58.65;23.40;;;;;;;-1.23;100.00;100632.44;5096356;28;20055;-74
2023/01/21 06:27:26;;;;;;;52.72;22.48;;;;;;;-1.26;100.00;100627.66;5077855;28;20028;-74
2023/01/21 06:29:52;;;;;;;54.13;22.83;;;;;;;-1.30;100.00;100633.25;5096373;28;20032;-73
2023/01/21 06:32:17;;;;;;;56.25;24.33;;;;;;;-1.61;100.00;100578.09;5095881;28;20073;-73
2023/01/21 06:34:45;;;;;;;55.05;23.20;;;;;;;-1.42;100.00;100616.88;5094824;28;20051;-73
2023/01/21 06:37:11;;;;;;;59.75;24.65;;;;;;;-1.33;100.00;100611.66;5096186;28;20074;-74
2023/01/21 06:39:37;;;;;;;54.88;22.48;;;;;;;-1.68;100.00;100572.50;5077582;28;20052;-74
2023/01/21 06:42:03;;;;;;;51.75;21.67;;;;;;;-1.56;100.00;100566.50;5094884;28;20024;-73
2023/01/21 06:44:28;;;;;;;57.83;22.00;;;;;;;-1.72;100.00;100541.72;5078023;28;20024;-74
2023/01/21 06:46:53;;;;;;;57.92;23.50;;;;;;;-1.62;100.00;100563.28;5094558;28;20485;-74
2023/01/21 06:49:19;;;;;;;56.80;23.73;;;;;;;-1.40;100.00;100583.63;5094600;28;20059;-73
2023/01/21 06:51:44;;;;;;;55.60;22.40;;;;;;;-1.45;100.00;100566.44;5060727;28;20067;-73
2023/01/21 06:54:10;;;;;;;57.95;25.45;;;;;;;-1.44;100.00;100563.25;5095704;28;20119;-74
2023/01/21 06:56:35;;;;;;;54.88;23.15;;;;;;;-1.10;100.00;100611.16;5077336;28;20055;-75
2023/01/21 06:59:02;;;;;;;47.47;21.52;;;;;;;-1.24;100.00;100600.81;5077459;28;20042;-73
2023/01/21 07:01:27;;;;;;;59.08;24.02;;;;;;;-1.08;100.00;100617.19;5077223;28;20028;-74
2023/01/21 07:03:52;;;;;;;54.92;23.40;;;;;;;-1.33;100.00;100568.81;5095369;28;20027;-75
2023/01/21 07:06:18;;;;;;;56.58;22.50;;;;;;;-1.21;100.00;100585.97;5095456;28;20042;-74
2023/01/21 07:08:43;;;;;;;62.28;25.55;;;;;;;-1.32;100.00;100564.81;5077215;28;20453;-74
2023/01/21 07:11:09;;;;;;;55.42;23.10;;;;;;;-1.06;100.00;100608.38;5095475;28;20027;-74
2023/01/21 07:13:34;;;;;;;53.25;23.40;;;;;;;-1.01;100.00;100616.38;5094244;28;20047;-74
2023/01/21 07:16:00;;;;;;;50.88;24.38;;;;;;;-1.31;100.00;100558.78;5060522;28;20027;-73
2023/01/21 07:18:26;;;;;;;52.20;20.58;;;;;;;-1.20;100.00;100575.56;5095006;28;20035;-74
2023/01/21 07:20:52;;;;;;;46.20;20.77;;;;;;;-0.92;100.00;100625.16;5093946;28;20023;-73
2023/01/21 07:23:17;;;;;;;48.95;20.88;;;;;;;-1.03;100.00;100618.78;5094939;28;20024;-73
2023/01/21 07:25:43;;;;;;;39.20;18.48;;;;;;;-1.15;100.00;100584.34;5077013;28;20106;-74
2023/01/21 07:28:08;;;;;;;37.92;17.17;;;;;;;-1.31;100.00;100570.00;5076881;28;20024;-74
2023/01/21 07:30:34;;;;;;;46.78;18.35;;;;;;;-0.97;100.00;100626.38;5093713;28;20032;-74
2023/01/21 07:33:07;;;;;;;37.63;16.10;;;;;;;-0.91;100.00;100623.91;5093848;28;20051;-74
2023/01/21 07:35:33;;;;;;;37.25;18.13;;;;;;;-1.18;100.00;100595.59;5076678;28;20040;-74
2023/01/21 07:37:59;;;;;;;35.42;17.00;;;;;;;-0.92;100.00;100625.94;5060232;28;20059;-74
2023/01/21 07:40:24;;;;;;;35.55;16.02;;;;;;;-1.36;100.00;100552.81;5076544;28;20071;-74
2023/01/21 07:42:51;;;;;;;35.38;16.45;;;;;;;-1.09;100.00;100575.53;5076452;28;20019;-73
2023/01/21 07:45:17;;;;;;;38.35;17.58;;;;;;;-0.76;100.00;100612.22;5076715;28;20054;-74
2023/01/21 07:47:42;;;;;;;35.42;15.63;;;;;;;-0.81;100.00;100625.88;5076433;28;20032;-73
2023/01/21 07:50:08;;;;;;;30.85;15.25;;;;;;;-1.09;100.00;100567.13;5076350;28;20468;-74
2023/01/21 07:52:34;;;;;;;33.05;14.18;;;;;;;-0.81;100.00;100625.88;5094433;28;20361;-73
2023/01/21 07:55:00;;;;;;;39.65;17.83;;;;;;;-0.84;100.00;100598.66;5076153;28;20111;-73
2023/01/21 07:57:26;;;;;;;38.90;18.08;;;;;;;-0.82;100.00;100585.84;5094579;28;20058;-73
2023/01/21 07:59:51;;;;;;;34.28;16.10;;;;;;;-1.00;100.00;100562.66;5094259;28;20482;-74
2023/01/21 08:02:17;;;;;;;35.58;17.55;;;;;;;-0.92;100.00;100566.25;5094271;28;20062;-74
2023/01/21 08:04:42;;;;;;;37.92;17.60;;;;;;;-0.62;100.00;100602.16;5094240;28;20024;-74
2023/01/21 08:07:10;;;;;;;37.42;17.77;;;;;;;-0.64;100.00;100616.59;5059871;28;20370;-73
2023/01/21 08:09:36;;;;;;;35.67;15.55;;;;;;;-0.69;100.00;100586.16;5093212;28;20059;-73
2023/01/21 08:12:05;;;;;;;36.05;18.42;;;;;;;-0.99;100.00;100560.66;5076060;28;20464;-74
2023/01/21 08:14:31;;;;;;;32.67;16.58;;;;;;;-0.57;100.00;100594.09;5075877;28;20036;-74
2023/01/21 08:16:56;;;;;;;42.30;18.45;;;;;;;-0.49;100.00;100598.47;5094164;28;20027;-74
2023/01/21 08:19:22;;;;;;;34.25;16.77;;;;;;;-0.66;100.00;100571.31;5076005;28;20055;-73
2023/01/21 08:21:47;;;;;;;35.13;17.33;;;;;;;-0.88;100.00;100542.59;5094170;28;20483;-74
2023/01/21 08:24:12;;;;;;;36.10;16.25;;;;;;;-0.61;100.00;100615.75;5092882;28;20465;-74
2023/01/21 08:26:38;;;;;;;40.13;19.25;;;;;;;-0.64;100.00;100610.97;5075980;28;20046;-75
2023/01/21 08:29:03;;;;;;;39.33;18.02;;;;;;;-0.89;100.00;100554.22;5075779;28;20028;-73
2023/01/21 08:31:29;;;;;;;32.33;14.73;;;;;;;-0.88;100.00;100567.03;5093578;28;20028;-75
2023/01/21 08:33:54;;;;;;;42.50;18.15;;;;;;;-0.85;100.00;100602.66;5075728;28;20036;-75
2023/01/21 08:36:20;;;;;;;42.70;20.77;;;;;;;-1.01;100.00;100607.97;5058986;28;20024;-74
2023/01/21 08:38:45;;;;;;;38.33;18.48;;;;;;;-1.04;100.00;100577.91;5075645;28;20461;-73
2023/01/21 08:41:10;;;;;;;35.08;17.95;;;;;;;-0.70;100.00;100637.88;5092473;28;20024;-73
2023/01/21 08:43:36;;;;;;;44.70;20.40;;;;;;;-0.49;100.00;100649.00;5092054;28;20354;-74
2023/01/21 08:46:02;;;;;;;27.20;14.70;;;;;;;-0.60;100.00;100617.38;5075206;28;20389;-74
2023/01/21 08:48:28;;;;;;;27.40;13.10;;;;;;;-0.59;100.00;100621.78;5075263;28;20101;-74
2023/01/21 08:50:57;;;;;;;25.02;12.18;;;;;;;-0.34;100.00;100656.13;5093691;28;20032;-75
2023/01/21 08:53:23;;;;;;;26.83;12.10;;;;;;;-0.65;100.00;100594.53;5075631;28;20032;-75
2023/01/21 08:55:48;;;;;;;26.60;12.70;;;;;;;-0.47;100.00;100609.28;5058833;28;20115;-73
2023/01/21 08:58:13;;;;;;;25.83;10.88;;;;;;;-0.29;100.00;100664.13;5075463;28;20107;-74
2023/01/21 09:00:40;;;;;;;30.58;12.40;;;;;;;-0.36;100.00;100661.34;5092374;28;20054;-74
2023/01/21 09:03:06;;;;;;;25.77;11.55;;;;;;;-0.40;100.00;100645.72;5075299;28;20024;-74
2023/01/21 09:05:32;;;;;;;26.63;12.23;;;;;;;-0.29;100.00;100658.50;5075195;28;20105;-74
2023/01/21 09:07:57;;;;;;;24.30;12.27;;;;;;;-0.18;100.00;100666.88;5093632;28;20023;-73
2023/01/21 09:13:08;;;;;;;25.10;12.80;;;;;;;0.20;100.00;100664.19;5093395;28;20046;-73
2023/01/21 09:15:41;;;;;;;28.13;13.40;;;;;;;-0.01;100.00;100615.38;5075015;28;20035;-74
2023/01/21 09:18:06;;;;;;;28.25;13.45;;;;;;;0.16;100.00;100645.34;5058632;28;20106;-74
2023/01/21 09:20:32;;;;;;;24.33;11.57;;;;;;;0.05;100.00;100626.97;5093492;28;20047;-73
2023/01/21 09:22:58;;;;;;;21.02;11.70;;;;;;;0.29;100.00;100664.50;5075228;28;20024;-73
2023/01/21 09:25:24;;;;;;;20.88;12.27;;;;;;;-0.07;100.00;100619.03;5074972;28;20024;-73
2023/01/21 09:27:49;;;;;;;23.08;12.80;;;;;;;0.28;100.00;100641.22;5091848;28;20473;-73
2023/01/21 09:30:15;;;;;;;24.85;12.90;;;;;;;0.27;100.00;100622.00;5091873;28;20109;-74
2023/01/21 09:32:40;;;;;;;26.67;12.90;;;;;;;0.20;100.00;100614.41;5071698;28;20041;-73
2023/01/21 09:35:07;;;;;;;26.55;13.88;;;;;;;0.47;100.00;100639.84;5073097;28;20396;-73
2023/01/21 09:37:33;;;;;;;27.58;15.45;;;;;;;0.32;100.00;100587.81;5072951;28;20462;-74
2023/01/21 09:40:00;;;;;;;33.92;17.65;;;;;;;0.47;100.00;100611.75;5072887;28;20025;-74
2023/01/21 09:42:27;;;;;;;42.20;18.10;;;;;;;0.52;100.00;100620.53;5072868;28;20401;-73
2023/01/21 09:44:54;;;;;;;36.15;18.50;;;;;;;0.53;100.00;100607.25;5071451;28;20077;-74
2023/01/21 09:47:36;;;;;;;30.83;16.13;;;;;;;0.67;100.00;100621.19;5071475;28;20021;-74
2023/01/21 09:50:05;;;;;;;35.00;17.38;;;;;;;0.73;100.00;100615.91;5054886;28;20035;-73
2023/01/21 09:52:37;;;;;;;37.65;20.23;;;;;;;0.80;100.00;100616.63;5054970;28;20028;-74
2023/01/21 09:55:04;;;;;;;37.53;20.42;;;;;;;0.79;100.00;100611.41;5072992;28;20024;-73
2023/01/21 09:57:38;;;;;;;38.72;19.15;;;;;;;0.84;100.00;100610.97;5075263;28;20047;-74
2023/01/21 10:00:22;;;;;;;36.10;19.45;;;;;;;0.92;100.00;100609.66;5076588;28;20025;-74
2023/01/21 10:02:50;;;;;;;39.50;20.48;;;;;;;1.13;100.00;100598.16;5076545;28;20028;-73
2023/01/21 10:05:31;;;;;;;38.47;19.77;;;;;;;1.19;100.00;100581.59;5076588;28;20025;-74
2023/01/21 10:08:03;;;;;;;39.95;19.50;;;;;;;1.21;100.00;100568.69;5074935;28;20074;-74
2023/01/21 10:10:51;;;;;;;39.15;20.23;;;;;;;1.58;100.00;100590.31;5074938;28;20028;-74
2023/01/21 10:13:19;;;;;;;35.22;17.55;;;;;;;1.53;100.00;100593.59;5074980;28;20031;-73
2023/01/21 10:15:48;;;;;;;26.65;14.35;;;;;;;1.57;100.00;100580.25;5076079;28;20028;-74
2023/01/21 10:18:19;;;;;;;29.90;15.13;;;;;;;1.67;100.00;100586.94;5076105;28;20074;-74
2023/01/21 10:20:52;;;;;;;28.88;13.90;;;;;;;1.76;100.00;100576.75;5076287;28;20093;-74
2023/01/21 10:23:26;;;;;;;20.85;12.68;;;;;;;1.78;100.00;100579.94;5074898;28;20386;-75
2023/01/21 10:25:51;;;;;;;19.95;12.27;;;;;;;1.41;100.00;100521.75;5076100;28;20111;-74
2023/01/21 10:28:24;;;;;;;21.23;12.38;;;;;;;1.67;100.00;100551.13;5074931;28;20131;-75
2023/01/21 10:30:57;;;;;;;19.50;9.85;;;;;;;1.71;100.00;100574.41;5057961;28;20047;-75
2023/01/21 10:33:24;;;;;;;13.20;9.35;;;;;;;1.63;100.00;100577.78;5092388;28;20051;-73
2023/01/21 10:36:06;;;;;;;19.80;11.43;;;;;;;1.60;100.00;100573.00;5078055;28;20024;-74
2023/01/21 10:38:55;;;;;;;15.45;9.93;;;;;;;1.62;100.00;100559.28;5094805;28;20024;-75
2023/01/21 10:41:23;;;;;;;18.48;10.68;;;;;;;1.63;100.00;100572.94;5080586;28;20036;-74
2023/01/21 10:44:04;;;;;;;17.13;9.40;;;;;;;1.57;100.00;100571.00;5096331;28;20102;-74
2023/01/21 10:46:39;;;;;;;15.00;9.07;;;;;;;1.53;100.00;100573.09;5078010;28;20034;-74
2023/01/21 10:49:30;;;;;;;16.23;8.55;;;;;;;1.47;100.00;100567.94;5077608;28;20030;-75
2023/01/21 10:51:58;;;;;;;18.95;9.68;;;;;;;1.40;100.00;100565.22;5060927;28;20028;-74
2023/01/21 10:54:34;;;;;;;12.48;7.22;;;;;;;1.33;100.00;100540.00;5096079;28;20059;-74
2023/01/21 10:57:07;;;;;;;11.02;6.82;;;;;;;1.43;100.00;100553.13;5060917;28;20023;-74
2023/01/21 10:59:35;;;;;;;9.73;6.85;;;;;;;1.46;100.00;100559.91;5077562;28;20036;-74
2023/01/21 11:02:10;;;;;;;11.30;7.13;;;;;;;1.38;100.00;100533.88;5060631;28;20024;-74
2023/01/21 11:04:36;;;;;;;9.23;6.13;;;;;;;1.62;100.00;100551.63;5095673;28;20526;-74
2023/01/21 11:07:03;;;;;;;10.73;6.80;;;;;;;1.59;100.00;100543.22;5076581;28;20028;-75
2023/01/21 11:09:33;;;;;;;11.32;7.15;;;;;;;1.54;100.00;100546.53;5077321;28;20036;-75
2023/01/21 11:11:59;;;;;;;10.18;6.35;;;;;;;1.74;100.00;100553.84;5077133;28;20377;-75
2023/01/21 11:14:25;;;;;;;11.85;6.88;;;;;;;1.83;100.00;100559.75;5077293;28;20056;-75